sensor_id;sensor_type;location;lat;lon;timestamp;P1;durP1;ratioP1;P2;durP2;ratioP2
18887;SDS011;9576;47.792;9.628;2023-06-19T00:01:44;11.40;;;5.43;;
18887;SDS011;9576;47.792;9.628;2023-06-19T00:04:46;14.40;;;7.05;;
18887;SDS011;9576;47.792;9.628;2023-06-19T00:07:48;10.90;;;6.03;;
18887;SDS011;9576;47.792;9.628;2023-06-19T00:10:51;9.00;;;6.13;;
18887;SDS011;9576;47.792;9.628;2023-06-19T00:13:53;13.68;;;6.55;;
18887;SDS011;9576;47.792;9.628;2023-06-19T00:16:55;7.63;;;5.45;;
18887;SDS011;9576;47.792;9.628;2023-06-19T00:19:57;16.95;;;6.38;;
18887;SDS011;9576;47.792;9.628;2023-06-19T00:22:59;9.52;;;6.07;;
18887;SDS011;9576;47.792;9.628;2023-06-19T00:26:02;10.88;;;5.85;;
18887;SDS011;9576;47.792;9.628;2023-06-19T00:29:04;11.43;;;6.45;;
18887;SDS011;9576;47.792;9.628;2023-06-19T00:32:07;10.07;;;5.82;;
18887;SDS011;9576;47.792;9.628;2023-06-19T00:35:09;10.00;;;6.55;;
18887;SDS011;9576;47.792;9.628;2023-06-19T00:38:11;10.63;;;6.85;;
18887;SDS011;9576;47.792;9.628;2023-06-19T00:41:14;9.48;;;6.68;;
18887;SDS011;9576;47.792;9.628;2023-06-19T00:44:17;10.83;;;7.00;;
18887;SDS011;9576;47.792;9.628;2023-06-19T00:47:19;21.65;;;7.60;;
18887;SDS011;9576;47.792;9.628;2023-06-19T00:50:21;8.68;;;6.32;;
18887;SDS011;9576;47.792;9.628;2023-06-19T00:53:24;11.13;;;7.20;;
18887;SDS011;9576;47.792;9.628;2023-06-19T00:56:27;10.70;;;6.65;;
18887;SDS011;9576;47.792;9.628;2023-06-19T00:59:29;10.65;;;6.97;;
18887;SDS011;9576;47.792;9.628;2023-06-19T01:02:32;9.52;;;6.47;;
18887;SDS011;9576;47.792;9.628;2023-06-19T01:05:34;9.35;;;6.45;;
18887;SDS011;9576;47.792;9.628;2023-06-19T01:08:40;9.45;;;6.28;;
18887;SDS011;9576;47.792;9.628;2023-06-19T01:11:48;9.85;;;6.85;;
18887;SDS011;9576;47.792;9.628;2023-06-19T01:14:53;12.23;;;6.90;;
18887;SDS011;9576;47.792;9.628;2023-06-19T01:17:59;13.80;;;6.40;;
18887;SDS011;9576;47.792;9.628;2023-06-19T01:21:09;8.50;;;5.45;;
18887;SDS011;9576;47.792;9.628;2023-06-19T01:24:13;12.68;;;7.07;;
18887;SDS011;9576;47.792;9.628;2023-06-19T01:27:15;8.02;;;5.85;;
18887;SDS011;9576;47.792;9.628;2023-06-19T01:30:17;11.60;;;7.10;;
18887;SDS011;9576;47.792;9.628;2023-06-19T01:33:20;10.73;;;7.10;;
18887;SDS011;9576;47.792;9.628;2023-06-19T01:36:28;14.00;;;6.82;;
18887;SDS011;9576;47.792;9.628;2023-06-19T01:39:32;8.93;;;7.13;;
18887;SDS011;9576;47.792;9.628;2023-06-19T01:42:36;13.00;;;8.13;;
18887;SDS011;9576;47.792;9.628;2023-06-19T01:45:40;16.23;;;6.68;;
18887;SDS011;9576;47.792;9.628;2023-06-19T01:48:42;13.52;;;7.95;;
18887;SDS011;9576;47.792;9.628;2023-06-19T01:51:44;12.40;;;7.53;;
18887;SDS011;9576;47.792;9.628;2023-06-19T01:54:47;11.85;;;7.65;;
18887;SDS011;9576;47.792;9.628;2023-06-19T01:57:49;11.15;;;6.82;;
18887;SDS011;9576;47.792;9.628;2023-06-19T02:00:51;10.38;;;5.97;;
18887;SDS011;9576;47.792;9.628;2023-06-19T02:03:53;7.45;;;5.47;;
18887;SDS011;9576;47.792;9.628;2023-06-19T02:06:55;15.52;;;6.78;;
18887;SDS011;9576;47.792;9.628;2023-06-19T02:09:58;13.02;;;6.68;;
18887;SDS011;9576;47.792;9.628;2023-06-19T02:13:00;16.55;;;7.05;;
18887;SDS011;9576;47.792;9.628;2023-06-19T02:16:02;10.57;;;6.55;;
18887;SDS011;9576;47.792;9.628;2023-06-19T02:19:04;14.75;;;7.07;;
18887;SDS011;9576;47.792;9.628;2023-06-19T02:22:06;12.50;;;7.57;;
18887;SDS011;9576;47.792;9.628;2023-06-19T02:25:09;13.23;;;7.05;;
18887;SDS011;9576;47.792;9.628;2023-06-19T02:28:11;12.35;;;7.32;;
18887;SDS011;9576;47.792;9.628;2023-06-19T02:31:13;12.75;;;7.03;;
18887;SDS011;9576;47.792;9.628;2023-06-19T02:34:15;11.80;;;6.40;;
18887;SDS011;9576;47.792;9.628;2023-06-19T02:37:17;12.15;;;6.55;;
18887;SDS011;9576;47.792;9.628;2023-06-19T02:40:21;12.18;;;6.60;;
18887;SDS011;9576;47.792;9.628;2023-06-19T02:43:23;10.80;;;7.07;;
18887;SDS011;9576;47.792;9.628;2023-06-19T02:46:25;13.43;;;7.40;;
18887;SDS011;9576;47.792;9.628;2023-06-19T02:49:27;11.65;;;7.82;;
18887;SDS011;9576;47.792;9.628;2023-06-19T02:52:29;12.40;;;7.55;;
18887;SDS011;9576;47.792;9.628;2023-06-19T02:55:33;22.45;;;8.27;;
18887;SDS011;9576;47.792;9.628;2023-06-19T02:58:34;13.35;;;8.07;;
18887;SDS011;9576;47.792;9.628;2023-06-19T03:01:37;15.13;;;8.38;;
18887;SDS011;9576;47.792;9.628;2023-06-19T03:04:39;12.02;;;7.88;;
18887;SDS011;9576;47.792;9.628;2023-06-19T03:07:42;15.18;;;8.95;;
18887;SDS011;9576;47.792;9.628;2023-06-19T03:10:45;12.32;;;8.45;;
18887;SDS011;9576;47.792;9.628;2023-06-19T03:13:51;14.15;;;8.25;;
18887;SDS011;9576;47.792;9.628;2023-06-19T03:16:54;13.55;;;8.63;;
18887;SDS011;9576;47.792;9.628;2023-06-19T03:19:56;25.98;;;8.80;;
18887;SDS011;9576;47.792;9.628;2023-06-19T03:22:58;16.63;;;7.43;;
18887;SDS011;9576;47.792;9.628;2023-06-19T03:26:01;15.25;;;9.05;;
18887;SDS011;9576;47.792;9.628;2023-06-19T03:29:03;16.45;;;7.80;;
18887;SDS011;9576;47.792;9.628;2023-06-19T03:32:05;18.20;;;7.93;;
18887;SDS011;9576;47.792;9.628;2023-06-19T03:35:08;12.25;;;7.68;;
18887;SDS011;9576;47.792;9.628;2023-06-19T03:38:10;19.13;;;8.95;;
18887;SDS011;9576;47.792;9.628;2023-06-19T03:41:13;18.20;;;8.20;;
18887;SDS011;9576;47.792;9.628;2023-06-19T03:44:15;13.32;;;9.05;;
18887;SDS011;9576;47.792;9.628;2023-06-19T03:47:17;15.52;;;8.00;;
18887;SDS011;9576;47.792;9.628;2023-06-19T03:50:19;16.80;;;9.55;;
18887;SDS011;9576;47.792;9.628;2023-06-19T03:53:21;18.90;;;8.85;;
18887;SDS011;9576;47.792;9.628;2023-06-19T03:56:24;10.90;;;8.15;;
18887;SDS011;9576;47.792;9.628;2023-06-19T03:59:26;46.53;;;9.73;;
18887;SDS011;9576;47.792;9.628;2023-06-19T04:02:28;16.08;;;7.63;;
18887;SDS011;9576;47.792;9.628;2023-06-19T04:05:30;91.75;;;10.43;;
18887;SDS011;9576;47.792;9.628;2023-06-19T04:08:32;11.10;;;7.57;;
18887;SDS011;9576;47.792;9.628;2023-06-19T04:11:36;13.88;;;7.13;;
18887;SDS011;9576;47.792;9.628;2023-06-19T04:14:38;23.13;;;8.63;;
18887;SDS011;9576;47.792;9.628;2023-06-19T04:17:39;17.10;;;7.53;;
18887;SDS011;9576;47.792;9.628;2023-06-19T04:20:41;24.02;;;8.35;;
18887;SDS011;9576;47.792;9.628;2023-06-19T04:23:43;12.88;;;6.70;;
18887;SDS011;9576;47.792;9.628;2023-06-19T04:26:47;13.13;;;7.78;;
18887;SDS011;9576;47.792;9.628;2023-06-19T04:29:48;14.35;;;8.32;;
18887;SDS011;9576;47.792;9.628;2023-06-19T04:32:53;15.90;;;7.45;;
18887;SDS011;9576;47.792;9.628;2023-06-19T04:35:55;17.00;;;7.78;;
18887;SDS011;9576;47.792;9.628;2023-06-19T04:38:57;33.95;;;7.55;;
18887;SDS011;9576;47.792;9.628;2023-06-19T04:42:02;17.27;;;8.27;;
18887;SDS011;9576;47.792;9.628;2023-06-19T04:45:05;11.60;;;7.57;;
18887;SDS011;9576;47.792;9.628;2023-06-19T04:48:07;12.20;;;8.50;;
18887;SDS011;9576;47.792;9.628;2023-06-19T04:51:09;18.42;;;8.60;;
18887;SDS011;9576;47.792;9.628;2023-06-19T04:54:11;13.68;;;7.82;;
18887;SDS011;9576;47.792;9.628;2023-06-19T04:57:15;32.35;;;8.52;;
18887;SDS011;9576;47.792;9.628;2023-06-19T05:00:17;10.13;;;7.18;;
18887;SDS011;9576;47.792;9.628;2023-06-19T05:03:20;9.90;;;6.65;;
18887;SDS011;9576;47.792;9.628;2023-06-19T05:06:22;14.32;;;7.15;;
18887;SDS011;9576;47.792;9.628;2023-06-19T05:09:24;17.77;;;7.70;;
18887;SDS011;9576;47.792;9.628;2023-06-19T05:12:27;16.30;;;9.38;;
18887;SDS011;9576;47.792;9.628;2023-06-19T05:15:29;26.17;;;7.40;;
18887;SDS011;9576;47.792;9.628;2023-06-19T05:18:31;11.82;;;7.75;;
18887;SDS011;9576;47.792;9.628;2023-06-19T05:21:33;13.90;;;7.57;;
18887;SDS011;9576;47.792;9.628;2023-06-19T05:24:35;20.48;;;7.38;;
18887;SDS011;9576;47.792;9.628;2023-06-19T05:27:38;17.50;;;7.25;;
18887;SDS011;9576;47.792;9.628;2023-06-19T05:30:40;12.60;;;7.65;;
18887;SDS011;9576;47.792;9.628;2023-06-19T05:33:42;11.63;;;7.53;;
18887;SDS011;9576;47.792;9.628;2023-06-19T05:36:44;12.55;;;8.07;;
18887;SDS011;9576;47.792;9.628;2023-06-19T05:39:47;12.23;;;7.72;;
18887;SDS011;9576;47.792;9.628;2023-06-19T05:42:50;14.38;;;8.57;;
18887;SDS011;9576;47.792;9.628;2023-06-19T05:45:52;13.25;;;7.63;;
18887;SDS011;9576;47.792;9.628;2023-06-19T05:48:54;9.88;;;6.57;;
18887;SDS011;9576;47.792;9.628;2023-06-19T05:51:56;11.20;;;6.63;;
18887;SDS011;9576;47.792;9.628;2023-06-19T05:54:59;10.95;;;6.70;;
18887;SDS011;9576;47.792;9.628;2023-06-19T05:58:02;10.13;;;6.53;;
18887;SDS011;9576;47.792;9.628;2023-06-19T06:01:05;7.73;;;4.90;;
18887;SDS011;9576;47.792;9.628;2023-06-19T06:04:07;12.15;;;5.15;;
18887;SDS011;9576;47.792;9.628;2023-06-19T06:07:08;11.05;;;5.68;;
18887;SDS011;9576;47.792;9.628;2023-06-19T06:10:10;8.95;;;5.90;;
18887;SDS011;9576;47.792;9.628;2023-06-19T06:13:15;7.28;;;5.32;;
18887;SDS011;9576;47.792;9.628;2023-06-19T06:16:17;9.80;;;5.20;;
18887;SDS011;9576;47.792;9.628;2023-06-19T06:19:19;8.90;;;5.50;;
18887;SDS011;9576;47.792;9.628;2023-06-19T06:22:22;7.63;;;5.30;;
18887;SDS011;9576;47.792;9.628;2023-06-19T06:25:24;8.70;;;6.40;;
18887;SDS011;9576;47.792;9.628;2023-06-19T06:28:27;9.80;;;5.60;;
18887;SDS011;9576;47.792;9.628;2023-06-19T06:31:29;11.32;;;5.63;;
18887;SDS011;9576;47.792;9.628;2023-06-19T06:34:31;13.57;;;6.68;;
18887;SDS011;9576;47.792;9.628;2023-06-19T06:37:33;9.63;;;6.78;;
18887;SDS011;9576;47.792;9.628;2023-06-19T06:40:35;9.63;;;6.47;;
18887;SDS011;9576;47.792;9.628;2023-06-19T06:43:39;12.80;;;7.38;;
18887;SDS011;9576;47.792;9.628;2023-06-19T06:46:42;14.88;;;6.60;;
18887;SDS011;9576;47.792;9.628;2023-06-19T06:49:44;15.63;;;7.55;;
18887;SDS011;9576;47.792;9.628;2023-06-19T06:52:46;10.57;;;6.88;;
18887;SDS011;9576;47.792;9.628;2023-06-19T06:55:48;14.07;;;7.90;;
18887;SDS011;9576;47.792;9.628;2023-06-19T06:58:51;19.73;;;8.02;;
18887;SDS011;9576;47.792;9.628;2023-06-19T07:01:53;16.00;;;8.35;;
18887;SDS011;9576;47.792;9.628;2023-06-19T07:04:56;9.73;;;7.47;;
18887;SDS011;9576;47.792;9.628;2023-06-19T07:07:58;11.73;;;8.40;;
18887;SDS011;9576;47.792;9.628;2023-06-19T07:10:59;11.90;;;8.05;;
18887;SDS011;9576;47.792;9.628;2023-06-19T07:14:03;11.75;;;7.82;;
18887;SDS011;9576;47.792;9.628;2023-06-19T07:17:05;12.32;;;7.82;;
18887;SDS011;9576;47.792;9.628;2023-06-19T07:20:07;11.77;;;7.80;;
18887;SDS011;9576;47.792;9.628;2023-06-19T07:23:10;12.38;;;7.30;;
18887;SDS011;9576;47.792;9.628;2023-06-19T07:26:12;9.65;;;6.30;;
18887;SDS011;9576;47.792;9.628;2023-06-19T07:29:16;8.35;;;5.93;;
18887;SDS011;9576;47.792;9.628;2023-06-19T07:32:18;13.23;;;5.47;;
18887;SDS011;9576;47.792;9.628;2023-06-19T07:35:21;8.27;;;5.57;;
18887;SDS011;9576;47.792;9.628;2023-06-19T07:38:26;10.70;;;5.60;;
18887;SDS011;9576;47.792;9.628;2023-06-19T07:41:35;7.68;;;5.13;;
18887;SDS011;9576;47.792;9.628;2023-06-19T07:44:44;8.63;;;5.13;;
18887;SDS011;9576;47.792;9.628;2023-06-19T07:47:53;6.93;;;4.97;;
18887;SDS011;9576;47.792;9.628;2023-06-19T07:50:55;14.52;;;4.65;;
18887;SDS011;9576;47.792;9.628;2023-06-19T07:53:58;5.65;;;4.05;;
18887;SDS011;9576;47.792;9.628;2023-06-19T07:57:00;6.47;;;3.72;;
18887;SDS011;9576;47.792;9.628;2023-06-19T08:00:06;6.65;;;3.40;;
18887;SDS011;9576;47.792;9.628;2023-06-19T08:03:10;4.15;;;3.17;;
18887;SDS011;9576;47.792;9.628;2023-06-19T08:06:12;5.28;;;3.78;;
18887;SDS011;9576;47.792;9.628;2023-06-19T08:09:14;7.20;;;3.70;;
18887;SDS011;9576;47.792;9.628;2023-06-19T08:12:16;5.55;;;3.83;;
18887;SDS011;9576;47.792;9.628;2023-06-19T08:15:19;5.18;;;3.53;;
18887;SDS011;9576;47.792;9.628;2023-06-19T08:18:21;6.53;;;4.63;;
18887;SDS011;9576;47.792;9.628;2023-06-19T08:21:23;6.68;;;4.25;;
18887;SDS011;9576;47.792;9.628;2023-06-19T08:24:25;23.73;;;4.97;;
18887;SDS011;9576;47.792;9.628;2023-06-19T08:27:27;16.85;;;4.82;;
18887;SDS011;9576;47.792;9.628;2023-06-19T08:30:31;11.82;;;4.93;;
18887;SDS011;9576;47.792;9.628;2023-06-19T08:33:33;9.35;;;4.65;;
18887;SDS011;9576;47.792;9.628;2023-06-19T08:36:36;8.77;;;5.30;;
18887;SDS011;9576;47.792;9.628;2023-06-19T08:39:38;7.43;;;4.50;;
18887;SDS011;9576;47.792;9.628;2023-06-19T08:42:40;8.63;;;4.80;;
18887;SDS011;9576;47.792;9.628;2023-06-19T08:45:44;9.40;;;5.22;;
18887;SDS011;9576;47.792;9.628;2023-06-19T08:48:57;12.25;;;5.50;;
18887;SDS011;9576;47.792;9.628;2023-06-19T08:52:00;14.65;;;5.35;;
18887;SDS011;9576;47.792;9.628;2023-06-19T08:55:02;8.93;;;5.22;;
18887;SDS011;9576;47.792;9.628;2023-06-19T08:58:05;8.05;;;5.30;;
18887;SDS011;9576;47.792;9.628;2023-06-19T09:01:08;7.85;;;4.95;;
18887;SDS011;9576;47.792;9.628;2023-06-19T09:04:11;8.05;;;5.30;;
18887;SDS011;9576;47.792;9.628;2023-06-19T09:07:13;17.50;;;5.78;;
18887;SDS011;9576;47.792;9.628;2023-06-19T09:10:16;7.80;;;5.10;;
18887;SDS011;9576;47.792;9.628;2023-06-19T09:13:19;8.95;;;5.60;;
18887;SDS011;9576;47.792;9.628;2023-06-19T09:16:22;6.03;;;4.43;;
18887;SDS011;9576;47.792;9.628;2023-06-19T09:19:24;9.77;;;4.47;;
18887;SDS011;9576;47.792;9.628;2023-06-19T09:22:28;11.75;;;5.68;;
18887;SDS011;9576;47.792;9.628;2023-06-19T09:25:30;8.30;;;5.38;;
18887;SDS011;9576;47.792;9.628;2023-06-19T09:28:32;8.43;;;5.00;;
18887;SDS011;9576;47.792;9.628;2023-06-19T09:31:36;9.93;;;4.90;;
18887;SDS011;9576;47.792;9.628;2023-06-19T09:34:39;7.55;;;4.28;;
18887;SDS011;9576;47.792;9.628;2023-06-19T09:37:41;6.25;;;4.05;;
18887;SDS011;9576;47.792;9.628;2023-06-19T09:40:43;8.25;;;5.00;;
18887;SDS011;9576;47.792;9.628;2023-06-19T09:43:46;7.20;;;5.00;;
18887;SDS011;9576;47.792;9.628;2023-06-19T09:46:50;9.82;;;5.18;;
18887;SDS011;9576;47.792;9.628;2023-06-19T09:49:54;6.60;;;4.38;;
18887;SDS011;9576;47.792;9.628;2023-06-19T09:52:56;6.07;;;4.75;;
18887;SDS011;9576;47.792;9.628;2023-06-19T09:55:59;9.13;;;5.57;;
18887;SDS011;9576;47.792;9.628;2023-06-19T09:59:01;6.30;;;4.05;;
18887;SDS011;9576;47.792;9.628;2023-06-19T10:02:06;11.05;;;3.95;;
18887;SDS011;9576;47.792;9.628;2023-06-19T10:05:09;8.25;;;3.75;;
18887;SDS011;9576;47.792;9.628;2023-06-19T10:08:13;37.97;;;5.72;;
18887;SDS011;9576;47.792;9.628;2023-06-19T10:11:15;9.05;;;4.35;;
18887;SDS011;9576;47.792;9.628;2023-06-19T10:14:17;8.48;;;4.90;;
18887;SDS011;9576;47.792;9.628;2023-06-19T10:17:21;7.18;;;4.53;;
18887;SDS011;9576;47.792;9.628;2023-06-19T10:20:24;9.30;;;4.37;;
18887;SDS011;9576;47.792;9.628;2023-06-19T10:23:35;6.30;;;4.25;;
18887;SDS011;9576;47.792;9.628;2023-06-19T10:26:37;11.50;;;3.90;;
18887;SDS011;9576;47.792;9.628;2023-06-19T10:29:39;8.27;;;4.32;;
18887;SDS011;9576;47.792;9.628;2023-06-19T10:32:43;8.30;;;4.30;;
18887;SDS011;9576;47.792;9.628;2023-06-19T10:35:45;8.73;;;4.22;;
18887;SDS011;9576;47.792;9.628;2023-06-19T10:38:47;7.10;;;4.22;;
18887;SDS011;9576;47.792;9.628;2023-06-19T10:41:49;10.32;;;4.13;;
18887;SDS011;9576;47.792;9.628;2023-06-19T10:44:51;5.55;;;4.10;;
18887;SDS011;9576;47.792;9.628;2023-06-19T10:48:02;6.78;;;5.18;;
18887;SDS011;9576;47.792;9.628;2023-06-19T10:51:05;8.43;;;3.85;;
18887;SDS011;9576;47.792;9.628;2023-06-19T10:54:07;6.97;;;4.50;;
18887;SDS011;9576;47.792;9.628;2023-06-19T10:57:09;6.85;;;4.32;;
18887;SDS011;9576;47.792;9.628;2023-06-19T11:00:22;10.07;;;4.38;;
18887;SDS011;9576;47.792;9.628;2023-06-19T11:03:26;5.10;;;3.85;;
18887;SDS011;9576;47.792;9.628;2023-06-19T11:06:28;8.80;;;4.63;;
18887;SDS011;9576;47.792;9.628;2023-06-19T11:09:30;5.30;;;3.83;;
18887;SDS011;9576;47.792;9.628;2023-06-19T11:12:32;7.55;;;4.25;;
18887;SDS011;9576;47.792;9.628;2023-06-19T11:15:34;11.15;;;4.75;;
18887;SDS011;9576;47.792;9.628;2023-06-19T11:18:38;5.82;;;4.38;;
18887;SDS011;9576;47.792;9.628;2023-06-19T11:21:40;6.75;;;4.82;;
18887;SDS011;9576;47.792;9.628;2023-06-19T11:24:46;8.27;;;4.50;;
18887;SDS011;9576;47.792;9.628;2023-06-19T11:27:48;5.85;;;4.20;;
18887;SDS011;9576;47.792;9.628;2023-06-19T11:30:57;11.67;;;4.70;;
18887;SDS011;9576;47.792;9.628;2023-06-19T11:34:01;5.70;;;4.57;;
18887;SDS011;9576;47.792;9.628;2023-06-19T11:37:10;6.93;;;4.50;;
18887;SDS011;9576;47.792;9.628;2023-06-19T11:40:13;15.10;;;4.53;;
18887;SDS011;9576;47.792;9.628;2023-06-19T11:43:23;5.57;;;4.15;;
18887;SDS011;9576;47.792;9.628;2023-06-19T11:46:29;4.85;;;3.92;;
18887;SDS011;9576;47.792;9.628;2023-06-19T11:49:35;4.07;;;3.63;;
18887;SDS011;9576;47.792;9.628;2023-06-19T11:52:37;13.02;;;4.95;;
18887;SDS011;9576;47.792;9.628;2023-06-19T11:55:39;7.13;;;4.35;;
18887;SDS011;9576;47.792;9.628;2023-06-19T11:58:41;5.43;;;4.15;;
18887;SDS011;9576;47.792;9.628;2023-06-19T12:01:45;20.80;;;4.75;;
18887;SDS011;9576;47.792;9.628;2023-06-19T12:04:48;7.78;;;3.80;;
18887;SDS011;9576;47.792;9.628;2023-06-19T12:07:50;10.75;;;3.97;;
18887;SDS011;9576;47.792;9.628;2023-06-19T12:10:52;6.53;;;4.07;;
18887;SDS011;9576;47.792;9.628;2023-06-19T12:13:54;8.07;;;4.70;;
18887;SDS011;9576;47.792;9.628;2023-06-19T12:16:57;7.20;;;4.22;;
18887;SDS011;9576;47.792;9.628;2023-06-19T12:20:01;5.75;;;4.20;;
18887;SDS011;9576;47.792;9.628;2023-06-19T12:23:05;9.15;;;4.22;;
18887;SDS011;9576;47.792;9.628;2023-06-19T12:26:07;6.13;;;4.57;;
18887;SDS011;9576;47.792;9.628;2023-06-19T12:29:09;5.50;;;4.18;;
18887;SDS011;9576;47.792;9.628;2023-06-19T12:32:11;8.13;;;3.95;;
18887;SDS011;9576;47.792;9.628;2023-06-19T12:35:14;7.10;;;4.55;;
18887;SDS011;9576;47.792;9.628;2023-06-19T12:38:18;6.90;;;4.65;;
18887;SDS011;9576;47.792;9.628;2023-06-19T12:41:20;9.48;;;4.47;;
18887;SDS011;9576;47.792;9.628;2023-06-19T12:44:22;7.13;;;5.03;;
18887;SDS011;9576;47.792;9.628;2023-06-19T12:47:24;4.57;;;3.72;;
18887;SDS011;9576;47.792;9.628;2023-06-19T12:50:27;6.25;;;3.92;;
18887;SDS011;9576;47.792;9.628;2023-06-19T12:53:29;9.93;;;5.05;;
18887;SDS011;9576;47.792;9.628;2023-06-19T12:56:31;14.07;;;4.25;;
18887;SDS011;9576;47.792;9.628;2023-06-19T12:59:33;5.75;;;3.85;;
18887;SDS011;9576;47.792;9.628;2023-06-19T13:02:35;9.65;;;4.88;;
18887;SDS011;9576;47.792;9.628;2023-06-19T13:05:38;6.72;;;4.70;;
18887;SDS011;9576;47.792;9.628;2023-06-19T13:08:40;8.35;;;4.47;;
18887;SDS011;9576;47.792;9.628;2023-06-19T13:11:42;6.70;;;4.68;;
18887;SDS011;9576;47.792;9.628;2023-06-19T13:14:44;7.25;;;4.93;;
18887;SDS011;9576;47.792;9.628;2023-06-19T13:17:46;5.05;;;4.10;;
18887;SDS011;9576;47.792;9.628;2023-06-19T13:20:49;7.15;;;4.97;;
18887;SDS011;9576;47.792;9.628;2023-06-19T13:23:51;6.93;;;4.40;;
18887;SDS011;9576;47.792;9.628;2023-06-19T13:26:53;4.75;;;3.88;;
18887;SDS011;9576;47.792;9.628;2023-06-19T13:29:55;7.93;;;4.28;;
18887;SDS011;9576;47.792;9.628;2023-06-19T13:32:57;6.03;;;3.85;;
18887;SDS011;9576;47.792;9.628;2023-06-19T13:36:00;5.70;;;3.90;;
18887;SDS011;9576;47.792;9.628;2023-06-19T13:39:02;5.32;;;3.83;;
18887;SDS011;9576;47.792;9.628;2023-06-19T13:42:05;6.32;;;4.25;;
18887;SDS011;9576;47.792;9.628;2023-06-19T13:45:07;6.00;;;4.18;;
18887;SDS011;9576;47.792;9.628;2023-06-19T13:48:09;6.10;;;4.03;;
18887;SDS011;9576;47.792;9.628;2023-06-19T13:51:13;6.43;;;4.20;;
18887;SDS011;9576;47.792;9.628;2023-06-19T13:54:15;6.97;;;4.07;;
18887;SDS011;9576;47.792;9.628;2023-06-19T13:57:16;7.20;;;4.60;;
18887;SDS011;9576;47.792;9.628;2023-06-19T14:00:19;5.85;;;4.30;;
18887;SDS011;9576;47.792;9.628;2023-06-19T14:03:21;5.53;;;4.10;;
18887;SDS011;9576;47.792;9.628;2023-06-19T14:06:25;8.10;;;4.13;;
18887;SDS011;9576;47.792;9.628;2023-06-19T14:09:27;36.63;;;5.28;;
18887;SDS011;9576;47.792;9.628;2023-06-19T14:12:29;14.15;;;4.45;;
18887;SDS011;9576;47.792;9.628;2023-06-19T14:15:31;11.32;;;4.30;;
18887;SDS011;9576;47.792;9.628;2023-06-19T14:18:33;10.77;;;4.10;;
18887;SDS011;9576;47.792;9.628;2023-06-19T14:21:38;5.17;;;3.57;;
18887;SDS011;9576;47.792;9.628;2023-06-19T14:24:40;5.40;;;3.65;;
18887;SDS011;9576;47.792;9.628;2023-06-19T14:27:42;9.95;;;4.35;;
18887;SDS011;9576;47.792;9.628;2023-06-19T14:30:44;5.72;;;3.95;;
18887;SDS011;9576;47.792;9.628;2023-06-19T14:33:46;5.10;;;3.53;;
18887;SDS011;9576;47.792;9.628;2023-06-19T14:36:49;4.57;;;3.95;;
18887;SDS011;9576;47.792;9.628;2023-06-19T14:39:51;19.27;;;4.40;;
18887;SDS011;9576;47.792;9.628;2023-06-19T14:42:54;6.75;;;4.13;;
18887;SDS011;9576;47.792;9.628;2023-06-19T14:45:56;17.33;;;3.58;;
18887;SDS011;9576;47.792;9.628;2023-06-19T14:48:58;7.88;;;4.80;;
18887;SDS011;9576;47.792;9.628;2023-06-19T14:52:02;7.20;;;3.95;;
18887;SDS011;9576;47.792;9.628;2023-06-19T14:55:05;6.97;;;4.25;;
18887;SDS011;9576;47.792;9.628;2023-06-19T14:58:07;5.28;;;3.72;;
18887;SDS011;9576;47.792;9.628;2023-06-19T15:01:09;8.27;;;3.83;;
18887;SDS011;9576;47.792;9.628;2023-06-19T15:04:11;4.00;;;3.50;;
18887;SDS011;9576;47.792;9.628;2023-06-19T15:07:14;6.55;;;4.05;;
18887;SDS011;9576;47.792;9.628;2023-06-19T15:10:16;7.13;;;3.70;;
18887;SDS011;9576;47.792;9.628;2023-06-19T15:13:18;4.57;;;3.65;;
18887;SDS011;9576;47.792;9.628;2023-06-19T15:16:20;9.32;;;3.85;;
18887;SDS011;9576;47.792;9.628;2023-06-19T15:19:23;9.38;;;3.65;;
18887;SDS011;9576;47.792;9.628;2023-06-19T15:22:27;6.28;;;3.67;;
18887;SDS011;9576;47.792;9.628;2023-06-19T15:25:28;6.67;;;3.80;;
18887;SDS011;9576;47.792;9.628;2023-06-19T15:28:32;11.73;;;3.35;;
18887;SDS011;9576;47.792;9.628;2023-06-19T15:31:34;5.60;;;3.30;;
18887;SDS011;9576;47.792;9.628;2023-06-19T15:34:36;5.95;;;3.58;;
18887;SDS011;9576;47.792;9.628;2023-06-19T15:37:39;5.55;;;3.40;;
18887;SDS011;9576;47.792;9.628;2023-06-19T15:40:41;6.60;;;3.35;;
18887;SDS011;9576;47.792;9.628;2023-06-19T15:43:43;8.10;;;3.55;;
18887;SDS011;9576;47.792;9.628;2023-06-19T15:46:45;4.43;;;3.53;;
18887;SDS011;9576;47.792;9.628;2023-06-19T15:49:47;12.65;;;3.55;;
18887;SDS011;9576;47.792;9.628;2023-06-19T15:52:50;6.10;;;4.32;;
18887;SDS011;9576;47.792;9.628;2023-06-19T15:55:52;7.05;;;4.03;;
18887;SDS011;9576;47.792;9.628;2023-06-19T15:58:54;6.10;;;3.90;;
18887;SDS011;9576;47.792;9.628;2023-06-19T16:01:56;6.68;;;4.57;;
18887;SDS011;9576;47.792;9.628;2023-06-19T16:04:58;6.95;;;3.70;;
18887;SDS011;9576;47.792;9.628;2023-06-19T16:08:01;5.22;;;3.50;;
18887;SDS011;9576;47.792;9.628;2023-06-19T16:11:04;7.50;;;3.97;;
18887;SDS011;9576;47.792;9.628;2023-06-19T16:14:06;14.80;;;4.60;;
18887;SDS011;9576;47.792;9.628;2023-06-19T16:17:09;25.45;;;5.03;;
18887;SDS011;9576;47.792;9.628;2023-06-19T16:23:15;8.95;;;4.18;;
18887;SDS011;9576;47.792;9.628;2023-06-19T16:26:17;6.15;;;3.92;;
18887;SDS011;9576;47.792;9.628;2023-06-19T16:29:19;8.32;;;3.90;;
18887;SDS011;9576;47.792;9.628;2023-06-19T16:32:21;7.18;;;4.82;;
18887;SDS011;9576;47.792;9.628;2023-06-19T16:35:23;6.45;;;3.97;;
18887;SDS011;9576;47.792;9.628;2023-06-19T16:38:27;5.63;;;4.28;;
18887;SDS011;9576;47.792;9.628;2023-06-19T16:41:30;6.97;;;4.63;;
18887;SDS011;9576;47.792;9.628;2023-06-19T16:44:32;8.60;;;5.10;;
18887;SDS011;9576;47.792;9.628;2023-06-19T16:47:34;14.27;;;5.13;;
18887;SDS011;9576;47.792;9.628;2023-06-19T16:50:36;11.82;;;4.97;;
18887;SDS011;9576;47.792;9.628;2023-06-19T16:53:40;8.52;;;4.40;;
18887;SDS011;9576;47.792;9.628;2023-06-19T16:56:42;6.63;;;4.43;;
18887;SDS011;9576;47.792;9.628;2023-06-19T16:59:44;12.80;;;5.00;;
18887;SDS011;9576;47.792;9.628;2023-06-19T17:02:46;6.93;;;5.05;;
18887;SDS011;9576;47.792;9.628;2023-06-19T17:05:49;13.48;;;5.15;;
18887;SDS011;9576;47.792;9.628;2023-06-19T17:08:53;12.07;;;8.77;;
18887;SDS011;9576;47.792;9.628;2023-06-19T17:11:55;10.05;;;4.88;;
18887;SDS011;9576;47.792;9.628;2023-06-19T17:14:57;8.65;;;6.15;;
18887;SDS011;9576;47.792;9.628;2023-06-19T17:18:00;10.32;;;5.90;;
18887;SDS011;9576;47.792;9.628;2023-06-19T17:21:02;7.93;;;5.78;;
18887;SDS011;9576;47.792;9.628;2023-06-19T17:24:05;11.88;;;7.30;;
18887;SDS011;9576;47.792;9.628;2023-06-19T17:27:07;7.93;;;5.25;;
18887;SDS011;9576;47.792;9.628;2023-06-19T17:30:10;7.53;;;5.25;;
18887;SDS011;9576;47.792;9.628;2023-06-19T17:33:12;11.57;;;6.10;;
18887;SDS011;9576;47.792;9.628;2023-06-19T17:36:14;21.33;;;6.28;;
18887;SDS011;9576;47.792;9.628;2023-06-19T17:39:18;11.13;;;5.40;;
18887;SDS011;9576;47.792;9.628;2023-06-19T17:42:20;10.70;;;5.55;;
18887;SDS011;9576;47.792;9.628;2023-06-19T17:45:21;9.10;;;5.43;;
18887;SDS011;9576;47.792;9.628;2023-06-19T17:48:23;16.45;;;9.10;;
18887;SDS011;9576;47.792;9.628;2023-06-19T17:51:25;8.43;;;4.45;;
18887;SDS011;9576;47.792;9.628;2023-06-19T17:54:29;13.07;;;4.90;;
18887;SDS011;9576;47.792;9.628;2023-06-19T17:57:31;6.25;;;4.38;;
18887;SDS011;9576;47.792;9.628;2023-06-19T18:00:32;6.63;;;4.03;;
18887;SDS011;9576;47.792;9.628;2023-06-19T18:03:34;8.13;;;4.00;;
18887;SDS011;9576;47.792;9.628;2023-06-19T18:06:36;11.63;;;4.53;;
18887;SDS011;9576;47.792;9.628;2023-06-19T18:09:39;9.63;;;4.85;;
18887;SDS011;9576;47.792;9.628;2023-06-19T18:12:46;7.50;;;4.88;;
18887;SDS011;9576;47.792;9.628;2023-06-19T18:15:48;8.88;;;5.80;;
18887;SDS011;9576;47.792;9.628;2023-06-19T18:18:50;15.65;;;5.25;;
18887;SDS011;9576;47.792;9.628;2023-06-19T18:21:52;11.73;;;5.88;;
18887;SDS011;9576;47.792;9.628;2023-06-19T18:24:55;7.50;;;5.35;;
18887;SDS011;9576;47.792;9.628;2023-06-19T18:27:57;22.35;;;5.47;;
18887;SDS011;9576;47.792;9.628;2023-06-19T18:31:01;9.68;;;4.78;;
18887;SDS011;9576;47.792;9.628;2023-06-19T18:34:02;7.72;;;5.45;;